createdAt,value
2019-06-15T00:00:15.357Z,60.1
2019-06-15T00:03:15.766Z,60.0
2019-06-15T00:06:15.371Z,60.4
2019-06-15T00:09:14.927Z,60.5
2019-06-15T00:12:15.403Z,60.5
2019-06-15T00:15:15.064Z,60.6
2019-06-15T00:18:15.437Z,60.5
2019-06-15T00:21:15.107Z,61.0
2019-06-15T00:24:15.028Z,61.9
2019-06-15T00:27:15.220Z,61.2
2019-06-15T00:30:15.853Z,61.2
2019-06-15T00:33:15.922Z,61.0
2019-06-15T00:36:15.574Z,61.1
2019-06-15T00:39:15.151Z,61.1
2019-06-15T00:42:15.059Z,61.0
2019-06-15T00:45:15.769Z,61.1
2019-06-15T00:48:15.467Z,61.1
2019-06-15T00:51:15.043Z,61.0
2019-06-15T00:54:15.673Z,61.0
2019-06-15T00:57:20.560Z,61.0
2019-06-15T01:00:15.329Z,60.8
2019-06-15T01:03:15.121Z,60.9
2019-06-15T01:06:15.590Z,61.1
2019-06-15T01:09:15.197Z,61.0
2019-06-15T01:12:16.015Z,61.0
2019-06-15T01:15:15.591Z,61.0
2019-06-15T01:18:15.345Z,61.0
2019-06-15T01:21:15.891Z,61.1
2019-06-15T01:24:15.492Z,61.5
2019-06-15T01:27:15.235Z,61.5
2019-06-15T01:30:15.841Z,61.7
2019-06-15T01:33:15.660Z,62.2
2019-06-15T01:36:15.197Z,62.3
2019-06-15T01:39:15.708Z,62.2
2019-06-15T01:42:15.644Z,62.0
2019-06-15T01:45:15.087Z,61.8
2019-06-15T01:48:15.776Z,61.6
2019-06-15T01:51:15.265Z,62.0
2019-06-15T01:54:15.533Z,61.7
2019-06-15T01:57:15.085Z,61.7
2019-06-15T02:00:15.893Z,61.8
2019-06-15T02:03:15.687Z,62.0
2019-06-15T02:06:15.371Z,62.1
2019-06-15T02:09:15.708Z,61.9
2019-06-15T02:12:20.349Z,61.9
2019-06-15T02:15:15.287Z,62.0
2019-06-15T02:18:15.215Z,62.0
2019-06-15T02:21:15.132Z,61.8
2019-06-15T02:24:16.143Z,61.5
2019-06-15T02:27:15.685Z,61.5
2019-06-15T02:30:15.291Z,61.5
2019-06-15T02:33:15.471Z,61.6
2019-06-15T02:36:15.787Z,61.5
2019-06-15T02:39:15.670Z,61.1
2019-06-15T02:42:15.880Z,61.0
2019-06-15T02:45:16.026Z,60.9
2019-06-15T02:48:15.599Z,60.8
2019-06-15T02:51:15.298Z,60.8
2019-06-15T02:54:15.383Z,60.4
2019-06-15T02:57:15.113Z,60.5
2019-06-15T03:00:15.745Z,60.4
2019-06-15T03:03:15.817Z,60.2
2019-06-15T03:06:15.721Z,60.5
2019-06-15T03:09:15.655Z,60.6
2019-06-15T03:12:15.104Z,60.5
2019-06-15T03:15:15.755Z,60.7
2019-06-15T03:18:15.854Z,60.5
2019-06-15T03:21:15.594Z,60.5
2019-06-15T03:24:15.287Z,60.6
2019-06-15T03:27:16.274Z,60.8
2019-06-15T03:30:15.948Z,60.9
2019-06-15T03:33:15.554Z,60.9
2019-06-15T03:36:15.212Z,61.0
2019-06-15T03:39:15.087Z,61.0
2019-06-15T03:42:15.053Z,61.5
2019-06-15T03:45:15.553Z,61.4
2019-06-15T03:48:15.334Z,61.6
2019-06-15T03:51:15.077Z,61.5
2019-06-15T03:54:16.171Z,62.2
2019-06-15T03:57:15.893Z,62.8
2019-06-15T04:00:15.906Z,63.8
2019-06-15T04:03:15.124Z,63.1
2019-06-15T04:06:15.872Z,64.2
2019-06-15T04:09:15.207Z,63.5
2019-06-15T04:12:15.158Z,63.3
2019-06-15T04:15:15.773Z,63.4
2019-06-15T04:18:15.461Z,63.2
2019-06-15T04:21:15.187Z,63.7
2019-06-15T04:24:15.249Z,63.1
2019-06-15T04:27:15.301Z,62.8
2019-06-15T04:30:15.996Z,62.9
2019-06-15T04:33:15.733Z,62.0
2019-06-15T04:36:17.004Z,61.4
2019-06-15T04:39:15.636Z,60.7
2019-06-15T04:42:15.262Z,60.2
2019-06-15T04:45:15.591Z,59.5
2019-06-15T04:48:20.575Z,58.3
2019-06-15T04:51:15.637Z,57.3
2019-06-15T04:54:15.765Z,56.1
2019-06-15T04:57:15.505Z,55.1
2019-06-15T05:00:16.102Z,53.3
2019-06-15T05:03:15.443Z,53.0
2019-06-15T05:06:15.307Z,50.9
2019-06-15T05:09:15.350Z,51.1
2019-06-15T05:12:15.269Z,50.3
2019-06-15T05:15:15.342Z,49.4
2019-06-15T05:18:15.211Z,49.1
2019-06-15T05:21:15.135Z,50.0
2019-06-15T05:24:15.701Z,50.7
2019-06-15T05:27:15.563Z,51.7
2019-06-15T05:30:20.460Z,52.0
2019-06-15T05:33:15.643Z,52.6
2019-06-15T05:36:15.916Z,52.5
2019-06-15T05:39:20.925Z,53.1
2019-06-15T05:42:15.369Z,53.4
2019-06-15T05:45:15.219Z,53.2
2019-06-15T05:48:15.917Z,53.7
2019-06-15T05:51:15.187Z,53.1
2019-06-15T05:54:16.090Z,52.6
2019-06-15T05:57:21.539Z,50.1
2019-06-15T06:00:15.794Z,44.9
2019-06-15T06:03:15.582Z,42.9
2019-06-15T06:06:15.496Z,37.5
2019-06-15T06:09:15.321Z,35.2
2019-06-15T06:12:15.238Z,31.7
2019-06-15T06:15:15.193Z,31.4
2019-06-15T06:18:15.203Z,31.2
2019-06-15T06:21:15.246Z,27.2
2019-06-15T06:24:15.334Z,23.7
2019-06-15T06:27:15.197Z,22.7
2019-06-15T06:30:15.494Z,20.5
2019-06-15T06:33:15.763Z,17.0
2019-06-15T06:36:15.729Z,17.8
2019-06-15T06:39:15.790Z,17.6
2019-06-15T06:42:16.342Z,14.9
2019-06-15T06:45:16.526Z,16.0
2019-06-15T06:48:16.265Z,16.0
2019-06-15T06:51:16.169Z,15.1
2019-06-15T06:54:16.140Z,14.6
2019-06-15T06:57:16.045Z,13.3
2019-06-15T07:00:15.989Z,15.2
2019-06-15T07:03:15.970Z,15.2
2019-06-15T07:06:15.928Z,14.8
2019-06-15T07:09:15.949Z,15.5
2019-06-15T07:12:16.293Z,14.6
2019-06-15T07:15:15.859Z,15.5
2019-06-15T07:18:15.930Z,15.4
2019-06-15T07:21:15.791Z,16.0
2019-06-15T07:24:16.149Z,16.0
2019-06-15T07:27:16.076Z,16.0
2019-06-15T07:30:16.225Z,16.3
2019-06-15T07:33:16.258Z,15.6
2019-06-15T07:36:16.202Z,15.0
2019-06-15T07:39:16.236Z,14.2
2019-06-15T07:42:16.268Z,16.0
2019-06-15T07:45:16.610Z,15.2
2019-06-15T07:48:15.987Z,14.8
2019-06-15T07:51:15.840Z,15.4
2019-06-15T07:54:15.788Z,17.7
2019-06-15T07:57:15.917Z,19.8
2019-06-15T08:00:15.832Z,21.1
2019-06-15T08:03:15.617Z,21.8
2019-06-15T08:06:15.457Z,18.9
2019-06-15T08:09:15.530Z,17.6
2019-06-15T08:12:15.786Z,18.7
2019-06-15T08:15:15.492Z,20.0
2019-06-15T08:18:15.777Z,21.3
2019-06-15T08:21:15.388Z,22.2
2019-06-15T08:24:15.907Z,22.1
2019-06-15T08:27:15.842Z,20.3
2019-06-15T08:30:15.915Z,17.1
2019-06-15T08:33:16.483Z,15.1
2019-06-15T08:36:15.497Z,14.1
2019-06-15T08:39:16.447Z,13.6
2019-06-15T08:42:16.377Z,12.8
2019-06-15T08:45:15.614Z,13.7
2019-06-15T08:48:15.675Z,14.5
2019-06-15T08:51:15.809Z,13.3
2019-06-15T08:54:16.065Z,12.2
2019-06-15T08:57:16.053Z,11.1
2019-06-15T09:00:26.480Z,10.4
2019-06-15T09:03:15.692Z,10.3
2019-06-15T09:06:15.894Z,11.3
2019-06-15T09:09:21.044Z,12.2
2019-06-15T09:12:16.049Z,11.7
2019-06-15T09:15:16.360Z,11.8
2019-06-15T09:18:16.217Z,12.3
2019-06-15T09:21:16.324Z,14.5
2019-06-15T09:24:15.525Z,17.1
2019-06-15T09:27:15.455Z,17.7
2019-06-15T09:30:15.498Z,18.4
2019-06-15T09:33:15.677Z,19.1
2019-06-15T09:36:21.474Z,19.7
2019-06-15T09:39:15.542Z,21.5
2019-06-15T09:42:15.625Z,23.4
2019-06-15T09:45:15.494Z,25.1
2019-06-15T09:48:15.534Z,25.5
2019-06-15T09:51:15.806Z,27.0
2019-06-15T09:54:15.883Z,27.9
2019-06-15T09:57:15.752Z,29.2
2019-06-15T10:00:15.635Z,29.1
2019-06-15T10:03:16.015Z,27.7
2019-06-15T10:06:15.544Z,27.9
2019-06-15T10:09:15.652Z,28.5
2019-06-15T10:12:15.642Z,28.0
2019-06-15T10:15:15.526Z,28.1
2019-06-15T10:18:20.475Z,26.6
2019-06-15T10:21:15.980Z,26.7
2019-06-15T10:24:15.565Z,26.3
2019-06-15T10:27:16.101Z,25.6
2019-06-15T10:30:15.837Z,24.4
2019-06-15T10:33:15.740Z,23.2
2019-06-15T10:36:15.496Z,23.7
2019-06-15T10:39:15.579Z,22.8
2019-06-15T10:42:15.586Z,21.5
2019-06-15T10:45:15.855Z,20.6
2019-06-15T10:48:16.085Z,20.0
2019-06-15T10:51:15.915Z,20.5
2019-06-15T10:54:15.845Z,20.5
2019-06-15T10:57:15.651Z,19.6
2019-06-15T11:00:15.536Z,18.5
2019-06-15T11:03:16.319Z,18.5
2019-06-15T11:06:16.345Z,18.5
2019-06-15T11:09:16.405Z,18.0
2019-06-15T11:12:16.529Z,18.8
2019-06-15T11:15:16.371Z,19.8
2019-06-15T11:18:16.265Z,20.4
2019-06-15T11:21:15.597Z,20.5
2019-06-15T11:24:15.597Z,20.5
2019-06-15T11:27:15.721Z,18.3
2019-06-15T11:30:15.591Z,17.0
2019-06-15T11:33:15.971Z,17.0
2019-06-15T11:36:15.623Z,17.9
2019-06-15T11:39:15.656Z,19.3
2019-06-15T11:42:15.765Z,20.0
2019-06-15T11:45:15.647Z,20.1
2019-06-15T11:48:15.623Z,20.5
2019-06-15T11:51:15.632Z,20.2
2019-06-15T11:54:15.692Z,20.4
2019-06-15T11:57:15.581Z,21.1
2019-06-15T12:00:30.433Z,21.5
2019-06-15T12:03:15.617Z,21.7
2019-06-15T12:06:15.734Z,22.2
2019-06-15T12:09:15.702Z,23.0
2019-06-15T12:12:15.813Z,23.5
2019-06-15T12:15:15.780Z,23.9
2019-06-15T12:18:15.585Z,24.3
2019-06-15T12:21:15.710Z,25.0
2019-06-15T12:24:15.636Z,25.1
2019-06-15T12:27:15.482Z,25.9
2019-06-15T12:30:15.974Z,26.4
2019-06-15T12:33:15.556Z,26.9
2019-06-15T12:36:18.780Z,27.2
2019-06-15T12:39:15.329Z,27.3
2019-06-15T12:42:15.704Z,27.7
2019-06-15T12:45:15.648Z,27.6
2019-06-15T12:48:15.761Z,27.7
2019-06-15T12:51:15.942Z,27.9
2019-06-15T12:54:15.694Z,28.3
2019-06-15T12:57:16.188Z,28.6
2019-06-15T13:00:15.950Z,28.9
2019-06-15T13:03:16.012Z,28.6
2019-06-15T13:06:15.539Z,28.3
2019-06-15T13:09:15.679Z,28.1
2019-06-15T13:12:15.963Z,28.0
2019-06-15T13:15:16.041Z,28.3
2019-06-15T13:18:15.520Z,28.0
2019-06-15T13:21:15.599Z,27.8
2019-06-15T13:24:15.631Z,27.7
2019-06-15T13:27:15.649Z,28.2
2019-06-15T13:30:15.695Z,27.6
2019-06-15T13:33:15.690Z,27.8
2019-06-15T13:36:15.714Z,27.9
2019-06-15T13:39:15.669Z,27.8
2019-06-15T13:42:15.721Z,27.5
2019-06-15T13:45:15.604Z,28.0
2019-06-15T13:48:15.749Z,28.0
2019-06-15T13:51:15.811Z,28.1
2019-06-15T13:54:15.880Z,27.7
2019-06-15T13:57:15.774Z,27.4
2019-06-15T14:00:15.828Z,27.2
2019-06-15T14:03:15.684Z,27.2
2019-06-15T14:06:15.686Z,26.8
2019-06-15T14:09:15.990Z,26.8
2019-06-15T14:12:15.813Z,26.8
2019-06-15T14:15:15.768Z,26.9
2019-06-15T14:18:15.449Z,26.9
2019-06-15T14:21:15.573Z,25.8
2019-06-15T14:24:15.621Z,25.1
2019-06-15T14:27:15.646Z,25.1
2019-06-15T14:30:15.798Z,25.5
2019-06-15T14:33:15.398Z,25.8
2019-06-15T14:36:15.581Z,25.9
2019-06-15T14:39:15.867Z,26.2
2019-06-15T14:42:15.910Z,26.3
2019-06-15T14:45:15.658Z,26.2
2019-06-15T14:48:15.887Z,26.3
2019-06-15T14:51:15.721Z,26.3
2019-06-15T14:54:16.268Z,26.5
2019-06-15T14:57:16.191Z,26.7
2019-06-15T15:00:16.749Z,26.4
2019-06-15T15:03:17.140Z,26.5
2019-06-15T15:06:17.211Z,26.3
2019-06-15T15:09:17.045Z,26.7
2019-06-15T15:12:16.122Z,26.4
2019-06-15T15:15:17.130Z,26.6
2019-06-15T15:18:16.283Z,26.0
2019-06-15T15:21:16.565Z,26.8
2019-06-15T15:24:16.777Z,26.9
2019-06-15T15:27:15.726Z,27.3
2019-06-15T15:30:16.347Z,27.5
2019-06-15T15:33:15.483Z,27.1
2019-06-15T15:36:16.937Z,27.5
2019-06-15T15:39:16.688Z,27.4
2019-06-15T15:42:16.991Z,27.4
2019-06-15T15:45:15.884Z,27.6
2019-06-15T15:48:18.597Z,27.1
2019-06-15T15:51:17.180Z,27.0
2019-06-15T15:54:15.600Z,26.7
2019-06-15T15:57:17.204Z,26.8
2019-06-15T16:00:16.469Z,27.2
2019-06-15T16:03:16.101Z,27.5
2019-06-15T16:06:15.890Z,27.6
2019-06-15T16:09:16.841Z,27.5
2019-06-15T16:12:15.882Z,28.4
2019-06-15T16:15:16.011Z,27.7
2019-06-15T16:18:17.382Z,28.4
2019-06-15T16:21:16.842Z,28.3
2019-06-15T16:24:16.808Z,28.3
2019-06-15T16:27:15.930Z,28.0
2019-06-15T16:30:16.606Z,28.0
2019-06-15T16:33:16.168Z,28.5
2019-06-15T16:36:15.546Z,28.3
2019-06-15T16:39:16.756Z,28.4
2019-06-15T16:42:15.992Z,28.3
2019-06-15T16:45:16.209Z,28.3
2019-06-15T16:48:16.856Z,28.6
2019-06-15T16:51:16.857Z,28.4
2019-06-15T16:54:16.621Z,29.0
2019-06-15T16:57:16.152Z,28.9
2019-06-15T17:00:17.074Z,28.8
2019-06-15T17:03:22.038Z,28.9
2019-06-15T17:06:15.373Z,29.3
2019-06-15T17:09:16.857Z,29.2
2019-06-15T17:12:16.848Z,29.6
2019-06-15T17:15:16.989Z,29.6
2019-06-15T17:18:20.037Z,29.5
2019-06-15T17:21:17.029Z,29.6
2019-06-15T17:24:17.079Z,29.7
2019-06-15T17:27:17.082Z,29.6
2019-06-15T17:30:17.197Z,29.5
2019-06-15T17:33:16.682Z,29.9
2019-06-15T17:36:15.666Z,29.9
2019-06-15T17:39:17.346Z,30.2
2019-06-15T17:42:16.388Z,30.4
2019-06-15T17:45:16.198Z,30.6
2019-06-15T17:48:17.528Z,30.6
2019-06-15T17:51:16.217Z,30.5
2019-06-15T17:54:17.072Z,30.5
2019-06-15T17:57:15.876Z,30.4
2019-06-15T18:00:16.543Z,30.5
2019-06-15T18:03:16.966Z,30.5
2019-06-15T18:06:17.372Z,30.6
2019-06-15T18:09:17.221Z,30.8
2019-06-15T18:12:16.243Z,30.9
2019-06-15T18:15:26.555Z,31.0
2019-06-15T18:18:16.773Z,31.2
2019-06-15T18:21:16.013Z,31.3
2019-06-15T18:24:20.595Z,31.3
2019-06-15T18:27:16.971Z,31.2
2019-06-15T18:30:16.792Z,31.4
2019-06-15T18:33:27.310Z,31.5
2019-06-15T18:36:20.473Z,31.6
2019-06-15T18:39:16.562Z,31.7
2019-06-15T18:42:25.968Z,31.9
2019-06-15T18:45:21.076Z,32.0
2019-06-15T18:48:16.835Z,32.2
2019-06-15T18:51:16.612Z,32.3
2019-06-15T18:54:16.092Z,32.6
2019-06-15T18:57:17.571Z,32.9
2019-06-15T19:00:16.689Z,33.0
2019-06-15T19:03:16.940Z,33.2
2019-06-15T19:06:16.760Z,33.3
2019-06-15T19:09:16.327Z,33.5
2019-06-15T19:12:17.670Z,33.8
2019-06-15T19:15:16.810Z,34.0
2019-06-15T19:18:17.733Z,34.0
2019-06-15T19:21:17.014Z,34.3
2019-06-15T19:24:16.695Z,34.4
2019-06-15T19:27:16.196Z,34.7
2019-06-15T19:30:15.508Z,36.0
2019-06-15T19:33:15.902Z,35.2
2019-06-15T19:36:16.024Z,35.4
2019-06-15T19:39:16.522Z,35.5
2019-06-15T19:42:16.718Z,36.0
2019-06-15T19:45:20.294Z,36.0
2019-06-15T19:48:17.095Z,36.5
2019-06-15T19:51:16.539Z,36.8
2019-06-15T19:54:16.032Z,36.7
2019-06-15T19:57:20.955Z,36.7
2019-06-15T20:00:17.160Z,36.9
2019-06-15T20:03:20.563Z,37.0
2019-06-15T20:06:16.928Z,37.4
2019-06-15T20:09:15.993Z,37.6
2019-06-15T20:12:21.558Z,38.2
2019-06-15T20:15:16.828Z,38.0
2019-06-15T20:18:26.729Z,38.0
2019-06-15T20:21:16.540Z,38.7
2019-06-15T20:24:27.132Z,38.3
2019-06-15T20:27:20.169Z,38.6
2019-06-15T20:30:16.942Z,38.7
2019-06-15T20:33:16.652Z,38.8
2019-06-15T20:36:16.135Z,39.1
2019-06-15T20:39:21.609Z,39.0
2019-06-15T20:42:17.886Z,39.1
2019-06-15T20:45:16.311Z,39.3
2019-06-15T20:48:16.015Z,39.6
2019-06-15T20:51:17.285Z,39.6
2019-06-15T20:54:16.813Z,39.7
2019-06-15T20:57:22.764Z,40.5
2019-06-15T21:00:16.730Z,41.2
2019-06-15T21:03:16.240Z,40.1
2019-06-15T21:06:16.907Z,40.5
2019-06-15T21:09:18.644Z,40.5
2019-06-15T21:12:16.170Z,40.8
2019-06-15T21:15:16.051Z,40.5
2019-06-15T21:18:16.097Z,40.6
2019-06-15T21:21:16.034Z,41.0
2019-06-15T21:24:16.997Z,41.0
2019-06-15T21:27:21.026Z,41.1
2019-06-15T21:30:16.617Z,41.1
2019-06-15T21:33:15.783Z,41.4
2019-06-15T21:36:15.966Z,41.5
2019-06-15T21:39:20.802Z,41.9
2019-06-15T21:42:16.023Z,41.5
2019-06-15T21:45:15.945Z,41.6
2019-06-15T21:48:15.873Z,41.8
2019-06-15T21:51:16.560Z,41.7
2019-06-15T21:54:15.892Z,41.8
2019-06-15T21:57:16.029Z,42.1
2019-06-15T22:00:17.373Z,42.1
2019-06-15T22:03:16.921Z,42.0
2019-06-15T22:06:16.737Z,42.4
2019-06-15T22:09:20.550Z,42.3
2019-06-15T22:12:16.315Z,42.3
2019-06-15T22:15:16.152Z,42.4
2019-06-15T22:18:16.452Z,42.5
2019-06-15T22:21:16.122Z,42.4
2019-06-15T22:24:16.254Z,42.5
2019-06-15T22:27:17.104Z,42.6
2019-06-15T22:30:17.016Z,42.6
2019-06-15T22:33:16.514Z,42.7
2019-06-15T22:36:24.737Z,43.2
2019-06-15T22:39:17.136Z,43.1
2019-06-15T22:42:16.819Z,43.3
2019-06-15T22:45:17.198Z,43.4
2019-06-15T22:48:16.518Z,43.4
2019-06-15T22:51:16.844Z,43.7
2019-06-15T22:54:16.737Z,44.0
2019-06-15T22:57:16.693Z,44.1
2019-06-15T23:00:17.160Z,44.1
2019-06-15T23:03:16.812Z,45.3
2019-06-15T23:06:16.270Z,44.1
2019-06-15T23:09:16.706Z,45.2
2019-06-15T23:12:15.832Z,44.5
2019-06-15T23:15:17.486Z,44.6
2019-06-15T23:18:17.185Z,44.8
2019-06-15T23:21:17.322Z,45.3
2019-06-15T23:24:16.619Z,44.7
2019-06-15T23:27:16.557Z,44.5
2019-06-15T23:30:16.162Z,44.8
2019-06-15T23:33:17.315Z,44.6
2019-06-15T23:36:17.107Z,44.9
2019-06-15T23:39:16.456Z,45.1
2019-06-15T23:42:16.516Z,45.0
2019-06-15T23:45:16.155Z,44.8
2019-06-15T23:48:20.522Z,45.2
2019-06-15T23:51:16.934Z,44.9
2019-06-15T23:54:16.167Z,44.7
2019-06-15T23:57:16.112Z,44.9
